sensor_id;sensor_type;location;lat;lon;timestamp;pressure;altitude;pressure_sealevel;temperature;humidity
8101;BME280;4093;53.470;9.832;2023-04-29T00:00:25;100967.25;;;12.85;89.47
8101;BME280;4093;53.470;9.832;2023-04-29T00:02:53;100960.91;;;12.98;88.82
8101;BME280;4093;53.470;9.832;2023-04-29T00:05:21;100963.38;;;12.65;89.71
8101;BME280;4093;53.470;9.832;2023-04-29T00:07:49;100970.44;;;12.60;91.60
8101;BME280;4093;53.470;9.832;2023-04-29T00:10:17;100962.06;;;12.85;89.47
8101;BME280;4093;53.470;9.832;2023-04-29T00:12:45;100980.09;;;12.91;91.37
8101;BME280;4093;53.470;9.832;2023-04-29T00:15:14;100973.22;;;12.51;92.06
8101;BME280;4093;53.470;9.832;2023-04-29T00:17:41;100987.00;;;12.92;89.13
8101;BME280;4093;53.470;9.832;2023-04-29T00:20:11;100986.59;;;12.71;90.95
8101;BME280;4093;53.470;9.832;2023-04-29T00:22:39;100982.41;;;12.25;92.47
8101;BME280;4093;53.470;9.832;2023-04-29T00:25:07;100982.47;;;12.22;92.75
8101;BME280;4093;53.470;9.832;2023-04-29T00:27:36;100985.94;;;12.63;92.47
8101;BME280;4093;53.470;9.832;2023-04-29T00:30:06;100983.69;;;12.46;91.29
8101;BME280;4093;53.470;9.832;2023-04-29T00:32:35;100979.28;;;12.50;90.99
8101;BME280;4093;53.470;9.832;2023-04-29T00:35:03;100992.56;;;13.12;89.13
8101;BME280;4093;53.470;9.832;2023-04-29T00:37:31;100991.34;;;13.29;89.24
8101;BME280;4093;53.470;9.832;2023-04-29T00:40:00;100982.78;;;13.24;87.17
8101;BME280;4093;53.470;9.832;2023-04-29T00:42:28;100993.88;;;12.94;90.14
8101;BME280;4093;53.470;9.832;2023-04-29T00:44:55;100988.97;;;12.81;89.17
8101;BME280;4093;53.470;9.832;2023-04-29T00:47:23;100988.25;;;11.92;93.81
8101;BME280;4093;53.470;9.832;2023-04-29T00:49:52;101000.59;;;12.64;91.99
8101;BME280;4093;53.470;9.832;2023-04-29T00:52:21;101006.03;;;12.52;92.27
8101;BME280;4093;53.470;9.832;2023-04-29T00:54:49;101006.34;;;12.38;94.69
8101;BME280;4093;53.470;9.832;2023-04-29T00:57:18;101017.25;;;12.93;91.43
8101;BME280;4093;53.470;9.832;2023-04-29T00:59:46;101022.72;;;12.81;91.36
8101;BME280;4093;53.470;9.832;2023-04-29T01:02:14;101015.88;;;13.15;89.15
8101;BME280;4093;53.470;9.832;2023-04-29T01:04:42;101019.84;;;13.32;88.33
8101;BME280;4093;53.470;9.832;2023-04-29T01:07:14;100998.88;;;13.02;87.47
8101;BME280;4093;53.470;9.832;2023-04-29T01:09:52;101024.84;;;13.02;88.84
8101;BME280;4093;53.470;9.832;2023-04-29T01:12:25;101038.03;;;12.93;90.37
8101;BME280;4093;53.470;9.832;2023-04-29T01:15:03;101035.22;;;12.63;90.61
8101;BME280;4093;53.470;9.832;2023-04-29T01:17:37;101043.72;;;13.09;89.18
8101;BME280;4093;53.470;9.832;2023-04-29T01:20:08;101028.69;;;13.23;87.42
8101;BME280;4093;53.470;9.832;2023-04-29T01:22:38;101045.59;;;13.02;87.42
8101;BME280;4093;53.470;9.832;2023-04-29T01:25:07;101035.25;;;12.62;88.54
8101;BME280;4093;53.470;9.832;2023-04-29T01:27:39;101042.47;;;12.46;90.19
8101;BME280;4093;53.470;9.832;2023-04-29T01:30:12;101044.19;;;12.47;91.58
8101;BME280;4093;53.470;9.832;2023-04-29T01:32:51;101051.56;;;12.67;90.05
8101;BME280;4093;53.470;9.832;2023-04-29T01:35:35;101049.66;;;11.87;92.30
8101;BME280;4093;53.470;9.832;2023-04-29T01:38:16;101055.97;;;12.63;90.47
8101;BME280;4093;53.470;9.832;2023-04-29T01:40:47;101067.22;;;12.19;91.72
8101;BME280;4093;53.470;9.832;2023-04-29T01:43:22;101069.72;;;11.75;95.40
8101;BME280;4093;53.470;9.832;2023-04-29T01:45:51;101068.84;;;12.68;91.44
8101;BME280;4093;53.470;9.832;2023-04-29T01:48:21;101062.72;;;12.29;91.57
8101;BME280;4093;53.470;9.832;2023-04-29T01:50:49;101064.94;;;12.03;93.15
8101;BME280;4093;53.470;9.832;2023-04-29T01:53:17;101072.13;;;12.76;90.59
8101;BME280;4093;53.470;9.832;2023-04-29T01:55:46;101078.72;;;12.91;88.76
8101;BME280;4093;53.470;9.832;2023-04-29T01:58:14;101086.75;;;13.19;87.15
8101;BME280;4093;53.470;9.832;2023-04-29T02:00:42;101085.72;;;13.28;86.50
8101;BME280;4093;53.470;9.832;2023-04-29T02:03:09;101082.84;;;13.40;85.41
8101;BME280;4093;53.470;9.832;2023-04-29T02:05:38;101085.78;;;13.62;85.26
8101;BME280;4093;53.470;9.832;2023-04-29T02:08:05;101086.69;;;13.59;84.81
8101;BME280;4093;53.470;9.832;2023-04-29T02:10:33;101089.41;;;13.17;86.34
8101;BME280;4093;53.470;9.832;2023-04-29T02:13:02;101091.59;;;13.36;85.53
8101;BME280;4093;53.470;9.832;2023-04-29T02:15:30;101093.44;;;13.32;85.81
8101;BME280;4093;53.470;9.832;2023-04-29T02:17:58;101099.66;;;13.61;85.03
8101;BME280;4093;53.470;9.832;2023-04-29T02:20:26;101107.34;;;13.65;84.71
8101;BME280;4093;53.470;9.832;2023-04-29T02:22:53;101109.06;;;13.67;84.88
8101;BME280;4093;53.470;9.832;2023-04-29T02:25:21;101103.25;;;13.55;84.04
8101;BME280;4093;53.470;9.832;2023-04-29T02:27:48;101112.06;;;13.50;84.11
8101;BME280;4093;53.470;9.832;2023-04-29T02:30:18;101114.13;;;13.35;84.65
8101;BME280;4093;53.470;9.832;2023-04-29T02:32:46;101117.66;;;12.91;86.06
8101;BME280;4093;53.470;9.832;2023-04-29T02:35:13;101119.47;;;13.28;85.96
8101;BME280;4093;53.470;9.832;2023-04-29T02:37:41;101126.16;;;13.38;84.97
8101;BME280;4093;53.470;9.832;2023-04-29T02:40:10;101132.69;;;13.15;85.95
8101;BME280;4093;53.470;9.832;2023-04-29T02:42:38;101124.38;;;13.00;85.50
8101;BME280;4093;53.470;9.832;2023-04-29T02:45:07;101131.22;;;12.63;87.36
8101;BME280;4093;53.470;9.832;2023-04-29T02:47:36;101131.84;;;12.74;88.13
8101;BME280;4093;53.470;9.832;2023-04-29T02:50:05;101140.75;;;12.61;87.59
8101;BME280;4093;53.470;9.832;2023-04-29T02:52:33;101140.81;;;13.00;86.38
8101;BME280;4093;53.470;9.832;2023-04-29T02:55:00;101141.38;;;13.14;86.52
8101;BME280;4093;53.470;9.832;2023-04-29T02:57:28;101138.09;;;13.06;86.93
8101;BME280;4093;53.470;9.832;2023-04-29T02:59:57;101134.75;;;13.01;86.02
8101;BME280;4093;53.470;9.832;2023-04-29T03:02:25;101139.84;;;12.64;86.92
8101;BME280;4093;53.470;9.832;2023-04-29T03:04:54;101129.09;;;12.39;87.49
8101;BME280;4093;53.470;9.832;2023-04-29T03:07:22;101134.16;;;12.88;87.48
8101;BME280;4093;53.470;9.832;2023-04-29T03:09:49;101132.94;;;13.05;86.46
8101;BME280;4093;53.470;9.832;2023-04-29T03:12:18;101131.00;;;13.14;86.50
8101;BME280;4093;53.470;9.832;2023-04-29T03:14:46;101141.19;;;13.24;84.98
8101;BME280;4093;53.470;9.832;2023-04-29T03:17:14;101140.75;;;13.03;85.32
8101;BME280;4093;53.470;9.832;2023-04-29T03:19:41;101133.03;;;13.00;85.00
8101;BME280;4093;53.470;9.832;2023-04-29T03:22:10;101154.56;;;13.05;85.72
8101;BME280;4093;53.470;9.832;2023-04-29T03:24:38;101167.28;;;13.17;84.86
8101;BME280;4093;53.470;9.832;2023-04-29T03:27:06;101163.94;;;13.12;83.97
8101;BME280;4093;53.470;9.832;2023-04-29T03:29:33;101162.94;;;13.19;84.67
8101;BME280;4093;53.470;9.832;2023-04-29T03:32:01;101174.75;;;12.91;85.48
8101;BME280;4093;53.470;9.832;2023-04-29T03:34:29;101173.97;;;12.87;85.38
8101;BME280;4093;53.470;9.832;2023-04-29T03:36:57;101176.66;;;12.83;85.78
8101;BME280;4093;53.470;9.832;2023-04-29T03:39:26;101171.16;;;12.98;84.83
8101;BME280;4093;53.470;9.832;2023-04-29T03:41:57;101185.19;;;12.88;85.60
8101;BME280;4093;53.470;9.832;2023-04-29T03:44:26;101188.50;;;12.98;85.63
8101;BME280;4093;53.470;9.832;2023-04-29T03:46:54;101194.03;;;13.23;84.41
8101;BME280;4093;53.470;9.832;2023-04-29T03:49:22;101202.81;;;13.15;84.32
8101;BME280;4093;53.470;9.832;2023-04-29T03:51:50;101202.00;;;13.13;83.92
8101;BME280;4093;53.470;9.832;2023-04-29T03:54:18;101204.47;;;13.19;83.98
8101;BME280;4093;53.470;9.832;2023-04-29T03:56:47;101200.81;;;13.30;83.07
8101;BME280;4093;53.470;9.832;2023-04-29T03:59:14;101205.88;;;13.36;83.14
8101;BME280;4093;53.470;9.832;2023-04-29T04:01:42;101202.72;;;13.20;83.70
8101;BME280;4093;53.470;9.832;2023-04-29T04:04:10;101204.38;;;13.24;84.21
8101;BME280;4093;53.470;9.832;2023-04-29T04:06:37;101213.91;;;13.24;83.16
8101;BME280;4093;53.470;9.832;2023-04-29T04:09:05;101211.94;;;13.35;83.62
8101;BME280;4093;53.470;9.832;2023-04-29T04:11:33;101216.75;;;13.11;83.06
8101;BME280;4093;53.470;9.832;2023-04-29T04:14:03;101215.00;;;13.13;82.64
8101;BME280;4093;53.470;9.832;2023-04-29T04:16:31;101216.50;;;13.25;83.39
8101;BME280;4093;53.470;9.832;2023-04-29T04:18:58;101217.66;;;13.10;83.55
8101;BME280;4093;53.470;9.832;2023-04-29T04:21:26;101227.09;;;13.13;84.23
8101;BME280;4093;53.470;9.832;2023-04-29T04:23:55;101228.97;;;13.06;85.72
8101;BME280;4093;53.470;9.832;2023-04-29T04:26:23;101231.63;;;13.03;84.94
8101;BME280;4093;53.470;9.832;2023-04-29T04:28:50;101233.81;;;13.25;85.69
8101;BME280;4093;53.470;9.832;2023-04-29T04:31:19;101243.03;;;13.39;83.11
8101;BME280;4093;53.470;9.832;2023-04-29T04:33:47;101245.50;;;13.46;83.40
8101;BME280;4093;53.470;9.832;2023-04-29T04:36:15;101240.91;;;13.58;82.48
8101;BME280;4093;53.470;9.832;2023-04-29T04:38:43;101242.72;;;13.53;81.91
8101;BME280;4093;53.470;9.832;2023-04-29T04:41:10;101249.00;;;13.45;81.53
8101;BME280;4093;53.470;9.832;2023-04-29T04:43:39;101249.50;;;13.18;82.48
8101;BME280;4093;53.470;9.832;2023-04-29T04:46:10;101253.84;;;13.18;84.02
8101;BME280;4093;53.470;9.832;2023-04-29T04:48:39;101259.13;;;13.13;84.35
8101;BME280;4093;53.470;9.832;2023-04-29T04:51:07;101267.28;;;13.40;83.17
8101;BME280;4093;53.470;9.832;2023-04-29T04:53:35;101276.56;;;13.52;81.62
8101;BME280;4093;53.470;9.832;2023-04-29T04:56:04;101280.25;;;13.40;81.70
8101;BME280;4093;53.470;9.832;2023-04-29T04:58:32;101261.66;;;13.16;81.95
8101;BME280;4093;53.470;9.832;2023-04-29T05:01:00;101290.09;;;13.26;82.56
8101;BME280;4093;53.470;9.832;2023-04-29T05:03:28;101295.44;;;13.16;82.59
8101;BME280;4093;53.470;9.832;2023-04-29T05:05:58;101279.28;;;12.99;83.44
8101;BME280;4093;53.470;9.832;2023-04-29T05:08:26;101301.91;;;12.92;85.29
8101;BME280;4093;53.470;9.832;2023-04-29T05:10:54;101306.31;;;12.87;85.77
8101;BME280;4093;53.470;9.832;2023-04-29T05:13:22;101310.50;;;12.96;84.07
8101;BME280;4093;53.470;9.832;2023-04-29T05:15:50;101320.25;;;13.31;84.07
8101;BME280;4093;53.470;9.832;2023-04-29T05:18:18;101316.59;;;12.95;83.59
8101;BME280;4093;53.470;9.832;2023-04-29T05:20:46;101314.53;;;13.12;83.40
8101;BME280;4093;53.470;9.832;2023-04-29T05:23:15;101329.09;;;13.21;82.42
8101;BME280;4093;53.470;9.832;2023-04-29T05:25:42;101324.69;;;13.26;82.91
8101;BME280;4093;53.470;9.832;2023-04-29T05:28:10;101333.69;;;13.95;81.27
8101;BME280;4093;53.470;9.832;2023-04-29T05:30:38;101329.53;;;13.85;80.17
8101;BME280;4093;53.470;9.832;2023-04-29T05:33:06;101333.38;;;13.24;82.89
8101;BME280;4093;53.470;9.832;2023-04-29T05:35:33;101338.41;;;13.76;81.99
8101;BME280;4093;53.470;9.832;2023-04-29T05:38:01;101313.25;;;13.36;80.54
8101;BME280;4093;53.470;9.832;2023-04-29T05:40:31;101336.22;;;13.56;81.06
8101;BME280;4093;53.470;9.832;2023-04-29T05:42:58;101335.53;;;13.48;81.03
8101;BME280;4093;53.470;9.832;2023-04-29T05:45:26;101334.47;;;13.57;81.66
8101;BME280;4093;53.470;9.832;2023-04-29T05:47:54;101339.25;;;13.77;81.24
8101;BME280;4093;53.470;9.832;2023-04-29T05:50:22;101326.00;;;13.47;81.74
8101;BME280;4093;53.470;9.832;2023-04-29T05:52:49;101345.56;;;13.67;81.44
8101;BME280;4093;53.470;9.832;2023-04-29T05:55:20;101347.25;;;13.68;81.25
8101;BME280;4093;53.470;9.832;2023-04-29T05:57:49;101361.13;;;14.08;79.54
8101;BME280;4093;53.470;9.832;2023-04-29T06:00:16;101363.72;;;14.08;81.08
8101;BME280;4093;53.470;9.832;2023-04-29T06:02:44;101359.53;;;14.40;79.25
8101;BME280;4093;53.470;9.832;2023-04-29T06:05:24;101366.03;;;14.95;77.07
8101;BME280;4093;53.470;9.832;2023-04-29T06:07:53;101340.91;;;14.93;75.76
8101;BME280;4093;53.470;9.832;2023-04-29T06:10:21;101362.75;;;14.87;76.54
8101;BME280;4093;53.470;9.832;2023-04-29T06:12:50;101351.91;;;15.04;76.38
8101;BME280;4093;53.470;9.832;2023-04-29T06:15:17;101370.16;;;14.31;79.03
8101;BME280;4093;53.470;9.832;2023-04-29T06:17:45;101368.13;;;14.44;77.90
8101;BME280;4093;53.470;9.832;2023-04-29T06:20:14;101388.25;;;15.74;74.52
8101;BME280;4093;53.470;9.832;2023-04-29T06:22:43;101389.59;;;16.45;70.93
8101;BME280;4093;53.470;9.832;2023-04-29T06:25:11;101396.94;;;17.39;68.89
8101;BME280;4093;53.470;9.832;2023-04-29T06:27:39;101382.38;;;17.82;66.62
8101;BME280;4093;53.470;9.832;2023-04-29T06:30:09;101391.03;;;18.73;65.10
8101;BME280;4093;53.470;9.832;2023-04-29T06:32:37;101354.69;;;19.06;61.12
8101;BME280;4093;53.470;9.832;2023-04-29T06:35:06;101371.88;;;18.93;61.74
8101;BME280;4093;53.470;9.832;2023-04-29T06:37:34;101359.84;;;18.23;62.91
8101;BME280;4093;53.470;9.832;2023-04-29T06:40:04;101375.00;;;19.01;62.54
8101;BME280;4093;53.470;9.832;2023-04-29T06:42:32;101377.34;;;20.06;58.91
8101;BME280;4093;53.470;9.832;2023-04-29T06:45:00;101368.97;;;19.40;59.88
8101;BME280;4093;53.470;9.832;2023-04-29T06:47:29;101373.41;;;18.11;63.19
8101;BME280;4093;53.470;9.832;2023-04-29T06:49:56;101388.16;;;16.07;67.38
8101;BME280;4093;53.470;9.832;2023-04-29T06:52:24;101393.66;;;17.08;67.32
8101;BME280;4093;53.470;9.832;2023-04-29T06:54:52;101401.13;;;17.44;63.79
8101;BME280;4093;53.470;9.832;2023-04-29T06:57:19;101407.41;;;17.39;64.71
8101;BME280;4093;53.470;9.832;2023-04-29T06:59:47;101402.25;;;16.85;66.37
8101;BME280;4093;53.470;9.832;2023-04-29T07:02:15;101410.06;;;17.62;64.86
8101;BME280;4093;53.470;9.832;2023-04-29T07:04:44;101408.34;;;16.86;65.36
8101;BME280;4093;53.470;9.832;2023-04-29T07:07:11;101404.41;;;16.99;65.21
8101;BME280;4093;53.470;9.832;2023-04-29T07:09:39;101411.75;;;16.60;65.15
8101;BME280;4093;53.470;9.832;2023-04-29T07:12:07;101419.16;;;16.17;65.45
8101;BME280;4093;53.470;9.832;2023-04-29T07:14:35;101427.66;;;15.62;65.67
8101;BME280;4093;53.470;9.832;2023-04-29T07:17:03;101425.16;;;16.77;64.41
8101;BME280;4093;53.470;9.832;2023-04-29T07:19:30;101429.25;;;15.69;66.85
8101;BME280;4093;53.470;9.832;2023-04-29T07:21:59;101433.38;;;16.37;67.03
8101;BME280;4093;53.470;9.832;2023-04-29T07:24:27;101431.91;;;15.67;67.96
8101;BME280;4093;53.470;9.832;2023-04-29T07:26:55;101438.31;;;16.74;65.20
8101;BME280;4093;53.470;9.832;2023-04-29T07:29:22;101435.25;;;18.37;61.52
8101;BME280;4093;53.470;9.832;2023-04-29T07:31:50;101432.34;;;21.53;55.93
8101;BME280;4093;53.470;9.832;2023-04-29T07:34:18;101444.59;;;22.98;52.99
8101;BME280;4093;53.470;9.832;2023-04-29T07:36:45;101443.31;;;24.07;48.30
8101;BME280;4093;53.470;9.832;2023-04-29T07:39:14;101438.38;;;22.99;48.84
8101;BME280;4093;53.470;9.832;2023-04-29T07:41:42;101427.91;;;23.56;46.99
8101;BME280;4093;53.470;9.832;2023-04-29T07:44:10;101439.09;;;24.73;46.09
8101;BME280;4093;53.470;9.832;2023-04-29T07:46:37;101423.50;;;23.57;47.10
8101;BME280;4093;53.470;9.832;2023-04-29T07:49:05;101424.03;;;24.19;44.80
8101;BME280;4093;53.470;9.832;2023-04-29T07:51:33;101407.13;;;23.07;46.57
8101;BME280;4093;53.470;9.832;2023-04-29T07:54:00;101435.13;;;23.83;45.38
8101;BME280;4093;53.470;9.832;2023-04-29T07:56:29;101438.72;;;23.82;43.54
8101;BME280;4093;53.470;9.832;2023-04-29T07:58:58;101442.44;;;23.35;45.37
8101;BME280;4093;53.470;9.832;2023-04-29T08:01:26;101454.41;;;21.51;48.43
8101;BME280;4093;53.470;9.832;2023-04-29T08:03:54;101449.13;;;24.68;44.95
8101;BME280;4093;53.470;9.832;2023-04-29T08:06:22;101450.72;;;25.10;42.63
8101;BME280;4093;53.470;9.832;2023-04-29T08:08:50;101450.59;;;25.12;43.12
8101;BME280;4093;53.470;9.832;2023-04-29T08:11:18;101451.09;;;25.57;40.57
8101;BME280;4093;53.470;9.832;2023-04-29T08:13:48;101456.38;;;22.29;45.56
8101;BME280;4093;53.470;9.832;2023-04-29T08:16:16;101465.00;;;23.84;43.30
8101;BME280;4093;53.470;9.832;2023-04-29T08:18:43;101470.81;;;23.46;43.67
8101;BME280;4093;53.470;9.832;2023-04-29T08:21:11;101474.38;;;22.53;43.81
8101;BME280;4093;53.470;9.832;2023-04-29T08:23:39;101490.38;;;21.15;46.90
8101;BME280;4093;53.470;9.832;2023-04-29T08:26:08;101491.84;;;21.56;47.42
8101;BME280;4093;53.470;9.832;2023-04-29T08:28:36;101500.81;;;20.24;48.91
8101;BME280;4093;53.470;9.832;2023-04-29T08:31:05;101509.06;;;20.92;48.43
8101;BME280;4093;53.470;9.832;2023-04-29T08:33:33;101513.03;;;19.24;51.92
8101;BME280;4093;53.470;9.832;2023-04-29T08:36:02;101516.69;;;20.79;50.81
8101;BME280;4093;53.470;9.832;2023-04-29T08:38:30;101515.25;;;21.08;47.41
8101;BME280;4093;53.470;9.832;2023-04-29T08:40:57;101526.09;;;22.39;47.75
8101;BME280;4093;53.470;9.832;2023-04-29T08:43:25;101520.09;;;22.69;45.53
8101;BME280;4093;53.470;9.832;2023-04-29T08:45:54;101529.56;;;22.40;47.91
8101;BME280;4093;53.470;9.832;2023-04-29T08:48:23;101519.31;;;22.99;45.49
8101;BME280;4093;53.470;9.832;2023-04-29T08:50:52;101520.47;;;22.12;46.94
8101;BME280;4093;53.470;9.832;2023-04-29T08:53:19;101528.06;;;21.16;47.01
8101;BME280;4093;53.470;9.832;2023-04-29T08:55:47;101542.34;;;21.81;47.65
8101;BME280;4093;53.470;9.832;2023-04-29T08:58:15;101541.97;;;22.22;46.22
8101;BME280;4093;53.470;9.832;2023-04-29T09:00:43;101543.44;;;22.44;46.41
8101;BME280;4093;53.470;9.832;2023-04-29T09:03:16;101541.41;;;21.82;48.14
8101;BME280;4093;53.470;9.832;2023-04-29T09:05:52;101542.38;;;22.63;47.77
8101;BME280;4093;53.470;9.832;2023-04-29T09:08:20;101532.16;;;22.57;47.57
8101;BME280;4093;53.470;9.832;2023-04-29T09:10:50;101547.03;;;23.96;44.04
8101;BME280;4093;53.470;9.832;2023-04-29T09:13:22;101542.34;;;22.79;46.20
8101;BME280;4093;53.470;9.832;2023-04-29T09:15:50;101539.28;;;22.39;45.93
8101;BME280;4093;53.470;9.832;2023-04-29T09:18:40;101563.25;;;21.31;49.95
8101;BME280;4093;53.470;9.832;2023-04-29T09:21:17;101561.56;;;21.12;49.02
8101;BME280;4093;53.470;9.832;2023-04-29T09:23:49;101571.47;;;18.82;53.37
8101;BME280;4093;53.470;9.832;2023-04-29T09:26:17;101573.00;;;19.32;53.19
8101;BME280;4093;53.470;9.832;2023-04-29T09:28:46;101569.31;;;19.58;53.35
8101;BME280;4093;53.470;9.832;2023-04-29T09:31:26;101563.19;;;18.69;53.63
8101;BME280;4093;53.470;9.832;2023-04-29T09:33:55;101580.19;;;18.59;55.25
8101;BME280;4093;53.470;9.832;2023-04-29T09:36:41;101585.41;;;17.86;57.43
8101;BME280;4093;53.470;9.832;2023-04-29T09:39:12;101589.97;;;18.31;56.17
8101;BME280;4093;53.470;9.832;2023-04-29T09:41:42;101590.34;;;17.95;57.05
8101;BME280;4093;53.470;9.832;2023-04-29T09:44:24;101596.19;;;18.26;57.10
8101;BME280;4093;53.470;9.832;2023-04-29T09:46:54;101596.69;;;17.88;57.49
8101;BME280;4093;53.470;9.832;2023-04-29T09:49:24;101593.22;;;17.34;58.79
8101;BME280;4093;53.470;9.832;2023-04-29T09:51:54;101593.16;;;17.35;59.22
8101;BME280;4093;53.470;9.832;2023-04-29T09:54:23;101594.97;;;16.76;60.05
8101;BME280;4093;53.470;9.832;2023-04-29T09:56:52;101608.50;;;18.24;59.36
8101;BME280;4093;53.470;9.832;2023-04-29T09:59:20;101600.81;;;17.68;57.39
8101;BME280;4093;53.470;9.832;2023-04-29T10:01:50;101601.47;;;17.20;60.82
8101;BME280;4093;53.470;9.832;2023-04-29T10:04:22;101606.47;;;18.33;55.97
8101;BME280;4093;53.470;9.832;2023-04-29T10:06:52;101600.78;;;17.96;55.11
8101;BME280;4093;53.470;9.832;2023-04-29T10:09:22;101611.88;;;18.03;56.56
8101;BME280;4093;53.470;9.832;2023-04-29T10:11:51;101561.06;;;18.34;55.53
8101;BME280;4093;53.470;9.832;2023-04-29T10:14:19;101608.75;;;19.12;53.76
8101;BME280;4093;53.470;9.832;2023-04-29T10:16:49;101607.50;;;18.03;55.26
8101;BME280;4093;53.470;9.832;2023-04-29T10:19:25;101622.56;;;18.94;54.51
8101;BME280;4093;53.470;9.832;2023-04-29T10:21:54;101610.72;;;17.85;55.82
8101;BME280;4093;53.470;9.832;2023-04-29T10:24:25;101600.16;;;17.88;55.80
8101;BME280;4093;53.470;9.832;2023-04-29T10:26:53;101614.69;;;16.87;57.99
8101;BME280;4093;53.470;9.832;2023-04-29T10:29:24;101621.91;;;17.35;56.53
8101;BME280;4093;53.470;9.832;2023-04-29T10:31:54;101621.22;;;17.57;55.56
8101;BME280;4093;53.470;9.832;2023-04-29T10:34:24;101619.72;;;17.50;55.64
8101;BME280;4093;53.470;9.832;2023-04-29T10:36:53;101628.47;;;17.77;56.61
8101;BME280;4093;53.470;9.832;2023-04-29T10:39:38;101636.94;;;18.35;56.90
8101;BME280;4093;53.470;9.832;2023-04-29T10:42:16;101628.69;;;18.46;55.84
8101;BME280;4093;53.470;9.832;2023-04-29T10:45:18;101638.25;;;19.17;55.78
8101;BME280;4093;53.470;9.832;2023-04-29T10:48:07;101637.81;;;18.84;55.99
8101;BME280;4093;53.470;9.832;2023-04-29T10:53:18;101634.38;;;18.34;57.09
8101;BME280;4093;53.470;9.832;2023-04-29T10:55:49;101631.97;;;18.27;55.61
8101;BME280;4093;53.470;9.832;2023-04-29T10:58:35;101627.84;;;18.20;54.74
8101;BME280;4093;53.470;9.832;2023-04-29T11:01:03;101628.88;;;17.63;55.74
8101;BME280;4093;53.470;9.832;2023-04-29T11:03:52;101644.44;;;16.82;58.71
8101;BME280;4093;53.470;9.832;2023-04-29T11:06:25;101632.63;;;17.83;57.66
8101;BME280;4093;53.470;9.832;2023-04-29T11:09:08;101644.53;;;17.65;58.58
8101;BME280;4093;53.470;9.832;2023-04-29T11:11:58;101653.91;;;18.73;55.96
8101;BME280;4093;53.470;9.832;2023-04-29T11:14:30;101624.84;;;17.53;57.10
8101;BME280;4093;53.470;9.832;2023-04-29T11:16:59;101641.13;;;18.14;57.02
8101;BME280;4093;53.470;9.832;2023-04-29T11:19:32;101651.97;;;18.79;56.62
8101;BME280;4093;53.470;9.832;2023-04-29T11:22:08;101660.88;;;19.20;55.27
8101;BME280;4093;53.470;9.832;2023-04-29T11:24:48;101651.53;;;18.91;53.48
8101;BME280;4093;53.470;9.832;2023-04-29T11:27:18;101648.56;;;18.26;54.40
8101;BME280;4093;53.470;9.832;2023-04-29T11:29:49;101647.31;;;18.87;54.52
8101;BME280;4093;53.470;9.832;2023-04-29T11:32:19;101644.78;;;19.07;53.63
8101;BME280;4093;53.470;9.832;2023-04-29T11:34:47;101630.34;;;18.48;54.08
8101;BME280;4093;53.470;9.832;2023-04-29T11:37:19;101643.91;;;17.56;56.15
8101;BME280;4093;53.470;9.832;2023-04-29T11:39:48;101650.72;;;18.15;54.69
8101;BME280;4093;53.470;9.832;2023-04-29T11:42:20;101646.75;;;18.29;55.65
8101;BME280;4093;53.470;9.832;2023-04-29T11:44:50;101652.03;;;17.77;57.42
8101;BME280;4093;53.470;9.832;2023-04-29T11:47:19;101654.22;;;18.14;56.66
8101;BME280;4093;53.470;9.832;2023-04-29T11:49:47;101660.03;;;18.74;54.30
8101;BME280;4093;53.470;9.832;2023-04-29T11:52:15;101656.16;;;17.83;56.62
8101;BME280;4093;53.470;9.832;2023-04-29T11:54:43;101665.38;;;18.21;55.90
8101;BME280;4093;53.470;9.832;2023-04-29T11:57:13;101667.81;;;18.76;55.48
8101;BME280;4093;53.470;9.832;2023-04-29T11:59:42;101669.38;;;18.56;55.88
8101;BME280;4093;53.470;9.832;2023-04-29T12:02:10;101670.13;;;18.83;56.36
8101;BME280;4093;53.470;9.832;2023-04-29T12:04:44;101663.13;;;17.84;55.82
8101;BME280;4093;53.470;9.832;2023-04-29T12:07:13;101659.78;;;17.80;55.16
8101;BME280;4093;53.470;9.832;2023-04-29T12:09:42;101672.06;;;18.03;55.90
8101;BME280;4093;53.470;9.832;2023-04-29T12:12:10;101652.72;;;18.34;55.41
8101;BME280;4093;53.470;9.832;2023-04-29T12:14:39;101670.84;;;19.12;54.29
8101;BME280;4093;53.470;9.832;2023-04-29T12:17:09;101664.84;;;19.52;53.68
8101;BME280;4093;53.470;9.832;2023-04-29T12:19:38;101656.19;;;19.94;52.50
8101;BME280;4093;53.470;9.832;2023-04-29T12:22:06;101666.88;;;19.24;51.19
8101;BME280;4093;53.470;9.832;2023-04-29T12:24:35;101662.69;;;18.47;51.49
8101;BME280;4093;53.470;9.832;2023-04-29T12:27:06;101670.22;;;17.52;55.23
8101;BME280;4093;53.470;9.832;2023-04-29T12:29:34;101672.78;;;17.82;53.29
8101;BME280;4093;53.470;9.832;2023-04-29T12:32:02;101674.88;;;18.73;52.87
8101;BME280;4093;53.470;9.832;2023-04-29T12:34:32;101684.88;;;18.62;53.62
8101;BME280;4093;53.470;9.832;2023-04-29T12:37:00;101679.22;;;18.75;52.81
8101;BME280;4093;53.470;9.832;2023-04-29T12:39:29;101682.69;;;18.50;51.58
8101;BME280;4093;53.470;9.832;2023-04-29T12:41:59;101663.13;;;19.07;49.59
8101;BME280;4093;53.470;9.832;2023-04-29T12:44:34;101649.34;;;18.79;49.92
8101;BME280;4093;53.470;9.832;2023-04-29T12:47:07;101674.31;;;18.64;50.97
8101;BME280;4093;53.470;9.832;2023-04-29T12:49:40;101663.47;;;17.99;51.75
8101;BME280;4093;53.470;9.832;2023-04-29T12:52:07;101662.59;;;18.25;52.67
8101;BME280;4093;53.470;9.832;2023-04-29T12:54:36;101680.28;;;18.67;52.83
8101;BME280;4093;53.470;9.832;2023-04-29T12:57:03;101685.69;;;19.11;52.52
8101;BME280;4093;53.470;9.832;2023-04-29T12:59:31;101677.00;;;18.12;53.61
8101;BME280;4093;53.470;9.832;2023-04-29T13:01:59;101679.13;;;18.01;53.54
8101;BME280;4093;53.470;9.832;2023-04-29T13:04:27;101686.94;;;17.74;54.02
8101;BME280;4093;53.470;9.832;2023-04-29T13:06:56;101687.44;;;17.87;53.35
8101;BME280;4093;53.470;9.832;2023-04-29T13:09:26;101694.94;;;18.75;52.59
8101;BME280;4093;53.470;9.832;2023-04-29T13:11:53;101694.00;;;18.50;52.14
8101;BME280;4093;53.470;9.832;2023-04-29T13:14:21;101696.31;;;17.83;52.18
8101;BME280;4093;53.470;9.832;2023-04-29T13:16:49;101697.06;;;17.57;53.50
8101;BME280;4093;53.470;9.832;2023-04-29T13:19:16;101689.13;;;17.60;53.43
8101;BME280;4093;53.470;9.832;2023-04-29T13:22:05;101705.50;;;17.95;53.82
8101;BME280;4093;53.470;9.832;2023-04-29T13:24:33;101686.94;;;17.74;52.20